Saint-Ambroise, Canada
Current Conditions -  °F | °C
As of 10:00 PM on Tuesday 25 Nov 2014 (Local Time) from CYBG Reporting Station
Overcast Overcast  
Wind Chill: 28°   Ceiling: 8000
Heat Index: 36°   Visibility: 15mi
Dew Point: 28°   Wind: 10mph
Humidity: 75%   Direction: 250°WSW
Pressure: 29.77"   Gusts: 18mph
Location:  48.55°N, 71.32°W
Report Text: CYBG 260300Z 25009G16KT 15SM FEW060 OVC080 02/M02 A2977 RMK SC2AC6 SLP087
Loading
Personal Weather Stations






























Interactive Weather Map New forecast layout! Learn more

10-Day Weather Forecast

Advertisements
Track Severe Weather on mobile